This is the latest recevied weather packets stored in our database for station/object YO6SAY-10. If no packets are shown the sender has not sent any weather packets the latest 1 day(s).
| Time | Temp. | Humidity | Pressure | Rain* | Wind** | Luminosity | Snow |
|---|---|---|---|---|---|---|---|
| 1778106709 | 16.11° C | 47% | 947.9 hPa | - | - | - | - |
| 1778105809 | 16.11° C | 46% | 947.8 hPa | - | - | - | - |
| 1778098607 | 17.78° C | 43% | 947.3 hPa | - | - | - | - |
| 1778097707 | 17.78° C | 42% | 947.3 hPa | - | - | - | - |
| 1778096807 | 18.33° C | 42% | 947.3 hPa | - | - | - | - |
| 1778093206 | 20° C | 38% | 947.1 hPa | - | - | - | - |
| 1778092306 | 20.56° C | 37% | 947 hPa | - | - | - | - |
| 1778091406 | 20.56° C | 36% | 946.8 hPa | - | - | - | - |
| 1778085103 | 28.89° C | 30% | 946.4 hPa | - | - | - | - |
| 1778084203 | 31.11° C | 30% | 946.4 hPa | - | - | - | - |
| 1778083303 | 32.22° C | 29% | 946.3 hPa | - | - | - | - |
| 1778078801 | 34.44° C | 30% | 946.6 hPa | - | - | - | - |
| 1778077900 | 35° C | 31% | 946.6 hPa | - | - | - | - |
| 1778072499 | 23.89° C | 42% | 946.4 hPa | - | - | - | - |
| 1778071599 | 27.78° C | 38% | 946.5 hPa | - | - | - | - |
| 1778067998 | 31.67° C | 36% | 946.9 hPa | - | - | - | - |
| 1778067098 | 27.22° C | 40% | 947 hPa | - | - | - | - |
| 1778066198 | 21.11° C | 46% | 946.9 hPa | - | - | - | - |
| 1778062597 | 18.89° C | 47% | 947.5 hPa | - | - | - | - |
| 1778060797 | 18.89° C | 47% | 947.8 hPa | - | - | - | - |
| 1778059897 | 18.33° C | 47% | 948 hPa | - | - | - | - |
| 1778058997 | 18.33° C | 47% | 948 hPa | - | - | - | - |
| 1778057196 | 17.78° C | 48% | 948 hPa | - | - | - | - |
| 1778056296 | 17.78° C | 48% | 948.1 hPa | - | - | - | - |
| 1778055396 | 17.22° C | 49% | 948 hPa | - | - | - | - |
* Rain since midnight (hover to see other rain measurements)
** Current wind speed in m/s (hover to see current wind gust speed)